Time;durP1;ratioP1;P1;durP2;ratioP2;P2;SDS_P1;SDS_P2;PMS_P1;PMS_P2;Temp;Humidity;BMP_temperature;BMP_pressure;BME280_temperature;BME280_humidity;BME280_pressure;Samples;Min_cycle;Max_cycle;Signal;HPM_P1;HPM_P2
2023/01/12 08:59:47;;;;;;;0.90;0.40;;;9.70;99.90;;;;;;4740561;23;20756;-74
2023/01/12 09:02:15;;;;;;;0.80;0.20;;;9.80;99.90;;;;;;4896998;29;20214;-73
2023/01/12 09:04:42;;;;;;;2.80;0.40;;;9.80;99.90;;;;;;4879052;29;20554;-75
2023/01/12 09:07:10;;;;;;;2.30;0.63;;;9.80;99.90;;;;;;4887743;29;20244;-75
2023/01/12 09:09:37;;;;;;;0.30;0.10;;;9.80;99.90;;;;;;4897721;29;20297;-74
2023/01/12 09:12:04;;;;;;;3.03;0.63;;;9.80;99.90;;;;;;4900984;29;20214;-76
2023/01/12 09:14:31;;;;;;;1.67;0.33;;;9.80;99.90;;;;;;4900937;29;20229;-74
2023/01/12 09:16:59;;;;;;;3.40;0.50;;;9.90;99.90;;;;;;4900896;29;20242;-74
2023/01/12 09:19:26;;;;;;;2.50;0.93;;;9.90;99.90;;;;;;4901155;29;20629;-75
2023/01/12 09:21:52;;;;;;;1.20;0.37;;;9.80;99.90;;;;;;4900839;29;20217;-73
2023/01/12 09:24:20;;;;;;;2.53;0.30;;;9.80;99.90;;;;;;4900759;29;20212;-74
2023/01/12 09:26:46;;;;;;;4.17;0.60;;;9.90;99.90;;;;;;4900084;29;20238;-74
2023/01/12 09:29:14;;;;;;;7.20;0.50;;;9.90;99.90;;;;;;4900599;29;20662;-76
2023/01/12 09:31:43;;;;;;;2.47;0.50;;;9.90;99.90;;;;;;4881707;29;20615;-73
2023/01/12 09:34:12;;;;;;;7.40;0.73;;;9.90;99.90;;;;;;4906202;29;20214;-73
2023/01/12 09:36:40;;;;;;;2.63;0.53;;;10.00;99.90;;;;;;4913067;29;20230;-71
2023/01/12 09:39:07;;;;;;;2.23;0.30;;;10.00;99.90;;;;;;4899038;29;20216;-71
2023/01/12 09:47:18;;;;;;;4.67;0.70;;;10.10;99.90;;;;;;4899021;29;20321;-76
2023/01/12 09:49:51;;;;;;;3.00;0.50;;;10.10;99.90;;;;;;4898764;29;20217;-75
2023/01/12 09:52:22;;;;;;;4.33;0.30;;;10.10;99.90;;;;;;4898638;29;20669;-72
2023/01/12 09:54:52;;;;;;;2.60;0.40;;;10.10;99.90;;;;;;4898979;29;20210;-75
2023/01/12 09:57:55;;;;;;;3.27;0.30;;;10.10;99.90;;;;;;4898914;29;20661;-73
2023/01/12 10:00:22;;;;;;;4.73;1.03;;;10.10;99.90;;;;;;4898009;29;20221;-73
2023/01/12 10:02:51;;;;;;;2.53;0.43;;;10.10;99.90;;;;;;4898814;29;20214;-72
2023/01/12 10:05:32;;;;;;;2.00;0.50;;;10.10;99.90;;;;;;4899106;29;20245;-72
2023/01/12 10:07:59;;;;;;;3.53;0.57;;;10.10;99.90;;;;;;4898038;29;20245;-72
2023/01/12 10:10:26;;;;;;;3.77;0.60;;;10.10;99.90;;;;;;4897947;29;20217;-78
2023/01/12 10:12:57;;;;;;;6.93;0.60;;;10.10;99.90;;;;;;4898059;29;20213;-80
2023/01/12 10:15:35;;;;;;;1.07;0.50;;;10.10;99.90;;;;;;4897794;29;20320;-73
2023/01/12 10:18:07;;;;;;;1.37;0.43;;;10.20;99.90;;;;;;4899119;29;20221;-76
2023/01/12 10:20:39;;;;;;;0.57;0.30;;;10.20;99.90;;;;;;4898360;29;20292;-77
2023/01/12 10:23:13;;;;;;;3.53;0.40;;;10.20;99.90;;;;;;4898331;29;20245;-73
2023/01/12 10:25:43;;;;;;;2.30;0.47;;;10.20;99.90;;;;;;4898423;29;20261;-76
2023/01/12 10:28:16;;;;;;;3.40;0.40;;;10.20;99.90;;;;;;4898419;29;20234;-78
2023/01/12 10:30:44;;;;;;;2.97;0.93;;;10.20;99.90;;;;;;4897731;29;20220;-78
2023/01/12 10:33:14;;;;;;;3.43;0.67;;;10.20;99.90;;;;;;4898471;29;20217;-74
2023/01/12 10:35:54;;;;;;;3.53;0.63;;;10.10;99.90;;;;;;4892424;29;20257;-73
2023/01/12 10:38:23;;;;;;;2.83;0.67;;;10.10;99.90;;;;;;4905729;29;20304;-74
2023/01/12 10:41:15;;;;;;;1.93;0.57;;;10.20;99.90;;;;;;4909072;29;20213;-77
2023/01/12 10:43:44;;;;;;;4.17;0.77;;;10.20;99.90;;;;;;4909783;29;20209;-74
2023/01/12 10:46:13;;;;;;;5.00;0.73;;;10.30;99.90;;;;;;4917114;29;20720;-74
2023/01/12 10:48:42;;;;;;;8.87;2.43;;;10.30;99.90;;;;;;4916177;29;20212;-73
2023/01/12 10:51:29;;;;;;;1.60;0.67;;;10.20;99.90;;;;;;4903260;29;20217;-74
2023/01/12 10:54:01;;;;;;;10.30;3.83;;;10.20;99.90;;;;;;4897132;29;20554;-73
2023/01/12 10:56:35;;;;;;;17.30;5.17;;;10.20;99.90;;;;;;4897507;29;20596;-74
2023/01/12 10:59:04;;;;;;;9.00;4.10;;;10.20;99.90;;;;;;4897264;29;20217;-74
2023/01/12 11:01:46;;;;;;;2.47;0.60;;;10.20;99.90;;;;;;4898097;29;20221;-74
2023/01/12 11:04:15;;;;;;;3.50;0.30;;;10.20;99.90;;;;;;4897965;29;20210;-74
2023/01/12 11:06:56;;;;;;;1.90;0.50;;;10.20;99.90;;;;;;4892686;29;20234;-73
2023/01/12 11:09:25;;;;;;;2.57;1.20;;;10.20;99.90;;;;;;4897292;29;20210;-74
2023/01/12 11:11:56;;;;;;;1.80;0.53;;;10.20;99.90;;;;;;4897539;29;20677;-75
2023/01/12 11:14:29;;;;;;;5.43;0.80;;;10.30;99.90;;;;;;4897352;29;20206;-75
2023/01/12 11:17:05;;;;;;;2.33;0.60;;;10.20;99.90;;;;;;4897383;29;20234;-76
2023/01/12 11:19:37;;;;;;;5.33;1.13;;;10.20;99.90;;;;;;4897016;29;20210;-76
2023/01/12 11:22:12;;;;;;;6.17;0.70;;;10.30;99.90;;;;;;4896784;29;20229;-75
2023/01/12 11:24:43;;;;;;;1.27;0.70;;;10.20;99.90;;;;;;4897877;29;20208;-74
2023/01/12 11:27:18;;;;;;;1.77;0.43;;;10.20;99.90;;;;;;4897570;29;20426;-75
2023/01/12 11:29:53;;;;;;;3.23;0.60;;;10.30;99.90;;;;;;4896168;29;20260;-74
2023/01/12 11:32:30;;;;;;;1.67;0.40;;;10.30;99.90;;;;;;4896715;29;20214;-75
2023/01/12 11:35:03;;;;;;;2.73;0.77;;;10.30;99.90;;;;;;4897352;29;20215;-74
2023/01/12 11:37:35;;;;;;;1.43;0.43;;;10.30;99.90;;;;;;4896491;29;20213;-75
2023/01/12 11:40:13;;;;;;;1.67;0.40;;;10.30;99.90;;;;;;4897180;29;20211;-75
2023/01/12 11:45:34;;;;;;;0.97;0.40;;;10.30;99.90;;;;;;4897089;29;20233;-72
2023/01/12 11:48:13;;;;;;;1.20;0.50;;;10.30;99.90;;;;;;4897091;29;20242;-73
2023/01/12 11:50:40;;;;;;;0.97;0.57;;;10.30;99.90;;;;;;4896882;29;20210;-73
2023/01/12 11:53:19;;;;;;;7.93;0.77;;;10.30;99.90;;;;;;4896772;29;20214;-73
2023/01/12 11:56:08;;;;;;;2.07;0.60;;;10.40;99.90;;;;;;4897201;29;20226;-74
2023/01/12 11:58:42;;;;;;;1.10;0.50;;;10.40;99.90;;;;;;4896645;29;20222;-78
2023/01/12 12:01:15;;;;;;;0.63;0.30;;;10.40;99.90;;;;;;4896641;29;20216;-73
2023/01/12 12:03:58;;;;;;;1.13;0.67;;;10.40;99.90;;;;;;4896887;29;20218;-73
2023/01/12 12:06:49;;;;;;;1.20;0.60;;;10.40;99.90;;;;;;4880478;29;20260;-72
2023/01/12 12:09:30;;;;;;;1.07;0.43;;;10.40;99.90;;;;;;4894329;29;20210;-72
2023/01/12 12:12:00;;;;;;;0.83;0.40;;;10.60;99.90;;;;;;4896151;29;20206;-72
2023/01/12 12:14:44;;;;;;;0.80;0.57;;;10.80;99.90;;;;;;4895697;29;20574;-73
2023/01/12 12:17:18;;;;;;;2.73;0.60;;;10.90;99.90;;;;;;4896036;29;20667;-73
2023/01/12 12:19:56;;;;;;;1.17;0.50;;;10.90;99.90;;;;;;4896394;29;20669;-72
2023/01/12 12:22:37;;;;;;;1.37;0.60;;;10.80;99.90;;;;;;4897016;29;20217;-75
2023/01/12 12:25:22;;;;;;;4.97;0.57;;;10.70;99.90;;;;;;4896472;29;20245;-73
2023/01/12 12:27:58;;;;;;;1.23;0.60;;;10.60;99.90;;;;;;4895772;29;20250;-73
2023/01/12 12:30:46;;;;;;;3.80;0.77;;;10.60;99.90;;;;;;4896267;29;20266;-74
2023/01/12 12:33:22;;;;;;;1.47;0.60;;;10.60;99.90;;;;;;4896626;29;20210;-72
2023/01/12 12:36:02;;;;;;;0.80;0.50;;;10.60;99.90;;;;;;4896085;29;20226;-72
2023/01/12 12:38:47;;;;;;;0.97;0.50;;;10.60;99.90;;;;;;4896338;29;20214;-73
2023/01/12 12:47:34;;;;;;;2.10;0.70;;;10.50;99.90;;;;;;4900006;29;20284;-73
2023/01/12 12:50:03;;;;;;;1.40;0.60;;;10.50;99.90;;;;;;4899620;29;20219;-72
2023/01/12 12:52:31;;;;;;;2.20;0.80;;;10.50;99.90;;;;;;4900289;29;20214;-71
2023/01/12 12:54:58;;;;;;;1.87;0.50;;;10.50;99.90;;;;;;4900337;29;20214;-71
2023/01/12 12:57:26;;;;;;;1.43;0.40;;;10.50;99.90;;;;;;4899607;29;20214;-70
2023/01/12 12:59:58;;;;;;;1.67;0.47;;;10.60;99.90;;;;;;4899711;29;20254;-71
2023/01/12 13:02:37;;;;;;;1.57;0.40;;;10.60;99.90;;;;;;4900096;29;20258;-71
2023/01/12 13:05:06;;;;;;;0.77;0.40;;;10.60;99.90;;;;;;4899504;29;20233;-71
2023/01/12 13:07:42;;;;;;;2.60;0.57;;;10.60;99.90;;;;;;4899773;29;20720;-71
2023/01/12 13:10:28;;;;;;;2.93;0.63;;;10.60;99.90;;;;;;4899929;29;20210;-70
2023/01/12 13:13:28;;;;;;;0.90;0.40;;;10.60;99.90;;;;;;4899738;29;20221;-72
2023/01/12 13:16:43;;;;;;;1.23;0.30;;;10.60;99.90;;;;;;4896472;29;20317;-72
2023/01/12 13:19:14;;;;;;;1.87;0.50;;;10.60;99.90;;;;;;4891162;29;20273;-73
2023/01/12 13:21:57;;;;;;;1.47;0.40;;;10.60;99.90;;;;;;4899584;29;20248;-71
2023/01/12 13:24:27;;;;;;;2.13;0.40;;;10.60;99.90;;;;;;4899640;29;20555;-71
2023/01/12 13:26:56;;;;;;;1.27;0.40;;;10.60;99.90;;;;;;4899412;29;20232;-71
2023/01/12 13:29:41;;;;;;;1.07;0.30;;;10.60;99.90;;;;;;4899301;29;20712;-72
2023/01/12 13:32:40;;;;;;;0.70;0.10;;;10.60;99.90;;;;;;4899532;29;20622;-73
2023/01/12 13:35:27;;;;;;;2.53;0.30;;;10.60;99.90;;;;;;4880782;29;20234;-73
2023/01/12 13:38:04;;;;;;;0.93;0.33;;;10.60;99.90;;;;;;4892179;29;20682;-73
2023/01/12 13:40:32;;;;;;;3.20;0.40;;;10.60;99.90;;;;;;4898987;29;20673;-71
2023/01/12 13:43:13;;;;;;;0.57;0.20;;;10.60;99.90;;;;;;4899513;29;20212;-71
2023/01/12 13:45:49;;;;;;;1.40;0.30;;;10.60;99.90;;;;;;4899025;29;20717;-70
2023/01/12 13:48:18;;;;;;;1.00;0.40;;;10.60;99.90;;;;;;4899276;29;20612;-78
2023/01/12 13:50:48;;;;;;;1.50;0.40;;;10.60;99.90;;;;;;4898860;29;20224;-69
2023/01/12 13:53:22;;;;;;;0.60;0.50;;;10.60;99.90;;;;;;4892459;29;20203;-72
2023/01/12 13:55:56;;;;;;;0.93;0.40;;;10.60;99.90;;;;;;4899792;29;20241;-74
2023/01/12 13:58:23;;;;;;;1.40;0.43;;;10.60;99.90;;;;;;4900340;29;20218;-74
2023/01/12 14:00:57;;;;;;;1.47;0.37;;;10.70;99.90;;;;;;4900379;29;20215;-73
2023/01/12 14:03:47;;;;;;;1.03;0.40;;;10.70;99.90;;;;;;4900334;29;20217;-74
2023/01/12 14:06:24;;;;;;;1.30;0.80;;;10.60;99.90;;;;;;4899865;29;20355;-72
2023/01/12 14:09:00;;;;;;;0.97;0.30;;;10.70;99.90;;;;;;4900123;29;20238;-72
2023/01/12 14:12:03;;;;;;;1.00;0.30;;;10.70;99.90;;;;;;4881865;29;20210;-72
2023/01/12 14:17:48;;;;;;;2.67;0.43;;;10.70;99.90;;;;;;4875280;29;20583;-72
2023/01/12 14:20:17;;;;;;;1.63;0.30;;;10.70;99.90;;;;;;4881468;29;20217;-72
2023/01/12 14:22:45;;;;;;;2.03;0.40;;;10.80;99.90;;;;;;4896330;29;20266;-71
2023/01/12 14:25:18;;;;;;;1.93;0.40;;;10.80;99.90;;;;;;4899627;29;20282;-71
2023/01/12 14:27:49;;;;;;;0.30;0.23;;;10.80;99.90;;;;;;4899798;29;20597;-74
2023/01/12 14:30:16;;;;;;;0.40;0.20;;;10.80;99.90;;;;;;4899642;29;20219;-71
2023/01/12 14:32:45;;;;;;;2.30;0.30;;;10.90;99.90;;;;;;4899729;29;20215;-71
2023/01/12 14:35:15;;;;;;;3.10;0.30;;;10.90;99.90;;;;;;4899690;29;20717;-71
2023/01/12 14:37:43;;;;;;;2.87;0.40;;;10.90;99.90;;;;;;4899445;29;20221;-71
2023/01/12 14:40:23;;;;;;;1.73;0.30;;;10.90;99.90;;;;;;4899947;29;20221;-72
2023/01/12 14:48:24;;;;;;;2.43;0.50;;;11.00;99.90;;;;;;4880576;29;20249;-71
2023/01/12 14:51:21;;;;;;;1.07;0.40;;;11.00;99.90;;;;;;4899194;29;20551;-71
2023/01/12 14:53:54;;;;;;;2.30;0.70;;;11.00;99.90;;;;;;4877191;29;20689;-71
2023/01/12 14:56:23;;;;;;;0.40;0.20;;;11.00;99.90;;;;;;4899615;29;20743;-73
2023/01/12 14:58:51;;;;;;;1.43;0.30;;;11.00;99.90;;;;;;4899211;29;20225;-71
2023/01/12 15:01:32;;;;;;;1.47;0.40;;;11.00;99.90;;;;;;4899286;29;20210;-72
2023/01/12 15:04:01;;;;;;;2.03;0.30;;;11.10;99.90;;;;;;4899129;29;20214;-72
2023/01/12 15:06:28;;;;;;;1.40;0.27;;;11.10;99.90;;;;;;4899103;29;20230;-71
2023/01/12 15:08:57;;;;;;;3.70;0.40;;;11.10;99.90;;;;;;4897866;29;20249;-71
2023/01/12 15:11:35;;;;;;;0.97;0.30;;;11.10;99.90;;;;;;4899107;29;20576;-72
2023/01/12 15:14:04;;;;;;;0.60;0.30;;;11.20;99.90;;;;;;4899466;29;20213;-73
2023/01/12 15:27:30;;;;;;;1.00;0.40;;;11.30;99.90;;;;;;4899159;29;20290;-73
2023/01/12 15:30:06;;;;;;;4.20;0.97;;;11.20;99.90;;;;;;5131507;27;20549;-72
2023/01/12 15:32:37;;;;;;;1.70;0.30;;;11.20;99.90;;;;;;5131690;27;20201;-73
2023/01/12 15:35:06;;;;;;;2.07;0.40;;;11.20;99.90;;;;;;5131280;27;20709;-73
2023/01/12 15:37:33;;;;;;;2.30;0.30;;;11.30;99.90;;;;;;5131515;27;20201;-73
2023/01/12 15:40:00;;;;;;;0.40;0.40;;;11.30;99.90;;;;;;5131298;27;20290;-72
2023/01/12 15:42:27;;;;;;;0.30;0.20;;;11.30;99.90;;;;;;5130972;27;20201;-72
2023/01/12 15:44:54;;;;;;;0.60;0.30;;;11.30;99.90;;;;;;5130615;27;20215;-72
2023/01/12 15:47:22;;;;;;;0.93;0.20;;;11.30;99.90;;;;;;5131005;27;20209;-73
2023/01/12 15:49:52;;;;;;;1.73;0.63;;;11.30;99.90;;;;;;5130618;27;20695;-73
2023/01/12 15:52:21;;;;;;;2.83;0.40;;;11.20;99.90;;;;;;5130756;27;20262;-73
2023/01/12 15:54:48;;;;;;;2.10;0.57;;;11.10;99.90;;;;;;5130628;27;20201;-73
2023/01/12 15:57:15;;;;;;;1.33;0.30;;;11.10;99.90;;;;;;5130843;27;20201;-72
2023/01/12 15:59:41;;;;;;;0.50;0.30;;;11.00;99.90;;;;;;5130780;27;20205;-72
2023/01/12 16:02:26;;;;;;;1.00;0.40;;;11.00;99.90;;;;;;5130435;27;20208;-72
2023/01/12 16:04:53;;;;;;;2.40;0.90;;;10.90;99.90;;;;;;5130708;27;20250;-71
2023/01/12 16:07:20;;;;;;;0.40;0.30;;;10.90;99.90;;;;;;5130473;27;20292;-73
2023/01/12 16:09:48;;;;;;;1.00;0.40;;;10.80;99.90;;;;;;5130234;27;20709;-73
2023/01/12 16:12:15;;;;;;;0.40;0.30;;;10.80;99.90;;;;;;5130510;27;20250;-73
2023/01/12 16:14:42;;;;;;;3.60;0.30;;;10.80;99.90;;;;;;5129602;27;20205;-72
2023/01/12 16:17:09;;;;;;;0.20;0.13;;;10.80;99.90;;;;;;5129371;27;20216;-73
2023/01/12 16:19:40;;;;;;;2.50;0.40;;;10.80;99.90;;;;;;5129390;27;20205;-71
2023/01/12 16:22:11;;;;;;;1.63;0.50;;;10.80;99.90;;;;;;5129394;27;20205;-72
2023/01/12 16:24:38;;;;;;;1.37;0.77;;;10.80;99.90;;;;;;5129743;27;20609;-73
2023/01/12 16:27:05;;;;;;;0.70;0.40;;;10.80;99.90;;;;;;5129744;27;20225;-73
2023/01/12 16:29:32;;;;;;;0.63;0.47;;;10.70;99.90;;;;;;5129769;27;20229;-73
2023/01/12 16:31:59;;;;;;;1.90;0.40;;;10.70;99.90;;;;;;5129882;27;20212;-73
2023/01/12 16:34:25;;;;;;;0.50;0.30;;;10.70;99.90;;;;;;5130543;27;20209;-73
2023/01/12 16:36:53;;;;;;;2.20;0.60;;;10.70;99.90;;;;;;5129855;27;20765;-73
2023/01/12 16:39:21;;;;;;;2.30;0.53;;;10.70;99.90;;;;;;5128224;27;20211;-73
2023/01/12 16:41:48;;;;;;;0.80;0.50;;;10.70;99.90;;;;;;5115990;28;20221;-73
2023/01/12 16:44:15;;;;;;;0.80;0.53;;;10.70;99.90;;;;;;5116111;28;20198;-72
2023/01/12 16:46:42;;;;;;;1.53;0.50;;;10.70;99.90;;;;;;5116029;28;20607;-73
2023/01/12 16:49:09;;;;;;;3.07;0.43;;;10.70;99.90;;;;;;5116228;28;20579;-73
2023/01/12 16:51:35;;;;;;;2.60;0.60;;;10.80;99.90;;;;;;5116050;28;20202;-72
2023/01/12 16:54:04;;;;;;;2.00;0.40;;;10.80;99.90;;;;;;5116154;28;20202;-72
2023/01/12 16:56:31;;;;;;;0.73;0.40;;;10.80;99.90;;;;;;5116205;28;20222;-73
2023/01/12 16:58:57;;;;;;;1.87;0.50;;;10.80;99.90;;;;;;5115494;27;20208;-72
2023/01/12 17:01:24;;;;;;;0.50;0.40;;;10.80;99.90;;;;;;5115883;28;20205;-73
2023/01/12 17:03:56;;;;;;;2.53;0.90;;;10.80;99.90;;;;;;5115779;28;20201;-73
2023/01/12 17:06:24;;;;;;;0.90;0.40;;;10.80;99.90;;;;;;5115748;28;20222;-72
2023/01/12 17:08:51;;;;;;;0.77;0.40;;;10.80;99.90;;;;;;5116037;27;20237;-72
2023/01/12 17:11:22;;;;;;;0.97;0.40;;;10.80;99.90;;;;;;5115883;28;20613;-72
2023/01/12 17:13:50;;;;;;;1.90;0.60;;;10.80;99.90;;;;;;5115244;28;20224;-71
2023/01/12 17:16:17;;;;;;;0.97;0.60;;;10.80;99.90;;;;;;5115072;28;20704;-72
2023/01/12 17:18:44;;;;;;;0.60;0.50;;;10.80;99.90;;;;;;5115522;28;20209;-72
2023/01/12 17:21:13;;;;;;;2.23;0.50;;;10.90;99.90;;;;;;5115737;28;20198;-72
2023/01/12 17:23:40;;;;;;;3.27;0.60;;;10.90;99.90;;;;;;5115504;28;20552;-72
2023/01/12 17:26:11;;;;;;;2.03;0.60;;;10.90;99.90;;;;;;5115441;28;20221;-72
2023/01/12 17:28:40;;;;;;;0.73;0.30;;;10.90;99.90;;;;;;5115184;28;20652;-71
2023/01/12 17:31:08;;;;;;;0.83;0.60;;;10.90;99.90;;;;;;5115376;28;20210;-72
2023/01/12 17:33:35;;;;;;;0.40;0.20;;;10.90;99.90;;;;;;5115684;28;20205;-72
2023/01/12 17:36:04;;;;;;;2.93;0.30;;;10.80;99.90;;;;;;5115363;28;20228;-72
2023/01/12 17:38:30;;;;;;;0.53;0.43;;;10.80;99.90;;;;;;5114935;28;20708;-72
2023/01/12 17:40:57;;;;;;;3.77;0.70;;;10.80;99.90;;;;;;5115126;28;20206;-73
2023/01/12 17:43:23;;;;;;;2.10;0.57;;;10.80;99.90;;;;;;5115325;28;20206;-73
2023/01/12 17:45:51;;;;;;;1.30;0.63;;;10.80;99.90;;;;;;5115397;28;20225;-72
2023/01/12 17:48:18;;;;;;;1.07;0.63;;;10.80;99.90;;;;;;5115125;28;20206;-72
2023/01/12 17:50:46;;;;;;;1.90;0.43;;;10.80;99.90;;;;;;5115029;28;20201;-72
2023/01/12 17:53:13;;;;;;;2.00;0.60;;;10.70;99.90;;;;;;5114008;28;20258;-72
2023/01/12 17:55:40;;;;;;;0.33;0.30;;;10.70;99.90;;;;;;5114762;28;20228;-72
2023/01/12 17:58:07;;;;;;;0.60;0.40;;;10.70;99.90;;;;;;5115144;28;20206;-71
2023/01/12 18:00:34;;;;;;;2.37;0.67;;;10.70;99.90;;;;;;5114990;28;20205;-72
2023/01/12 18:03:02;;;;;;;1.10;0.67;;;10.70;99.90;;;;;;5114895;28;20292;-72
2023/01/12 18:05:30;;;;;;;1.10;0.50;;;10.70;99.90;;;;;;5114852;28;20229;-72
2023/01/12 18:07:57;;;;;;;2.10;0.60;;;10.60;99.90;;;;;;5114725;28;20255;-72
2023/01/12 18:10:23;;;;;;;2.80;0.80;;;10.60;99.90;;;;;;5114409;28;20235;-71
2023/01/12 18:12:50;;;;;;;1.53;0.70;;;10.60;99.90;;;;;;5114797;28;20367;-72
2023/01/12 18:15:18;;;;;;;1.17;0.50;;;10.70;99.90;;;;;;5114343;27;20217;-72
2023/01/12 18:17:45;;;;;;;1.97;0.60;;;10.60;99.90;;;;;;5114446;28;20325;-71
2023/01/12 18:20:13;;;;;;;0.50;0.40;;;10.60;99.90;;;;;;5114497;28;20237;-71
2023/01/12 18:22:40;;;;;;;1.30;0.70;;;10.60;99.90;;;;;;5114399;28;20208;-71
2023/01/12 18:25:08;;;;;;;2.40;0.70;;;10.60;99.90;;;;;;5114616;28;20410;-71
2023/01/12 18:27:34;;;;;;;2.90;0.70;;;10.60;99.90;;;;;;5114425;28;20206;-72
2023/01/12 18:30:01;;;;;;;3.70;0.60;;;10.60;99.90;;;;;;5114075;28;20695;-71
2023/01/12 18:32:28;;;;;;;1.50;1.00;;;10.60;99.90;;;;;;5114356;28;20208;-71
2023/01/12 18:34:56;;;;;;;1.47;0.60;;;10.60;99.90;;;;;;5113897;28;20202;-71
2023/01/12 18:37:24;;;;;;;2.17;0.63;;;10.70;99.90;;;;;;5114018;28;20227;-72
2023/01/12 18:39:51;;;;;;;2.77;0.50;;;10.70;99.90;;;;;;5113919;28;20549;-72
2023/01/12 18:45:03;;;;;;;3.13;0.70;;;10.70;99.90;;;;;;5113704;28;20224;-72
2023/01/12 18:55:44;;;;;;;1.70;0.50;;;10.70;99.90;;;;;;5113468;28;20274;-72
2023/01/12 18:58:11;;;;;;;2.90;1.23;;;10.70;99.90;;;;;;5113180;28;20208;-72
2023/01/12 19:00:37;;;;;;;0.90;0.67;;;10.70;99.90;;;;;;5113333;28;20419;-72
2023/01/12 19:03:05;;;;;;;5.70;0.70;;;10.70;99.90;;;;;;5113249;28;20197;-72
2023/01/12 19:05:40;;;;;;;2.50;0.60;;;10.70;99.90;;;;;;5113680;28;20222;-71
2023/01/12 19:10:53;;;;;;;3.43;0.80;;;10.70;99.90;;;;;;5113730;28;20259;-72
2023/01/12 19:18:49;;;;;;;2.57;0.63;;;10.70;99.90;;;;;;5113538;28;20208;-73
2023/01/12 19:29:30;;;;;;;1.67;0.60;;;10.70;99.90;;;;;;5112980;28;20228;-72
2023/01/12 19:31:56;;;;;;;1.07;0.70;;;10.60;99.90;;;;;;5113140;28;20552;-74
2023/01/12 19:34:24;;;;;;;2.33;0.70;;;10.60;99.90;;;;;;5112925;28;20198;-72
2023/01/12 19:36:51;;;;;;;4.03;0.60;;;10.60;99.90;;;;;;5112930;28;20695;-73
2023/01/12 19:39:29;;;;;;;1.73;0.90;;;10.60;99.90;;;;;;5112813;28;20288;-74
2023/01/12 19:44:40;;;;;;;2.37;1.10;;;10.70;99.90;;;;;;5113099;28;20342;-74
2023/01/12 19:47:07;;;;;;;4.93;1.80;;;10.60;99.90;;;;;;5112918;28;20201;-72
2023/01/12 19:49:34;;;;;;;1.33;0.77;;;10.60;99.90;;;;;;5113097;28;20233;-73
2023/01/12 19:52:01;;;;;;;3.03;1.00;;;10.60;99.90;;;;;;5112782;28;20205;-72
2023/01/12 19:54:30;;;;;;;0.83;0.60;;;10.60;99.90;;;;;;5105089;28;20209;-73
2023/01/12 19:56:57;;;;;;;3.23;0.97;;;10.60;99.90;;;;;;5104989;28;20226;-76
2023/01/12 19:59:23;;;;;;;0.70;0.60;;;10.60;99.90;;;;;;5112943;28;20656;-76
2023/01/12 20:01:52;;;;;;;2.17;0.50;;;10.60;99.90;;;;;;5113044;28;20252;-73
2023/01/12 20:04:19;;;;;;;2.67;0.60;;;10.60;99.90;;;;;;5112871;28;20209;-76
2023/01/12 20:06:46;;;;;;;1.03;0.60;;;10.50;99.90;;;;;;5112897;28;20226;-76
2023/01/12 20:09:13;;;;;;;1.07;0.50;;;10.50;99.90;;;;;;5112848;28;20201;-73
2023/01/12 20:11:41;;;;;;;2.03;0.60;;;10.50;99.90;;;;;;5112948;28;20212;-75
2023/01/12 20:14:08;;;;;;;1.53;0.60;;;10.50;99.90;;;;;;5113203;28;20209;-75
2023/01/12 20:16:35;;;;;;;2.43;0.50;;;10.50;99.90;;;;;;5115640;28;20317;-73
2023/01/12 20:19:02;;;;;;;1.40;0.30;;;10.50;99.90;;;;;;5116621;28;20205;-77
2023/01/12 20:21:29;;;;;;;2.40;0.30;;;10.50;99.90;;;;;;5116711;28;20624;-73
2023/01/12 20:23:56;;;;;;;4.07;0.53;;;10.50;99.90;;;;;;5117015;28;20201;-76
2023/01/12 20:26:23;;;;;;;1.70;0.63;;;10.50;99.90;;;;;;5116972;28;20227;-72
2023/01/12 20:28:52;;;;;;;2.20;0.50;;;10.50;99.90;;;;;;5116551;27;20213;-76
2023/01/12 20:31:19;;;;;;;1.07;0.53;;;10.50;99.90;;;;;;5116521;28;20324;-76
2023/01/12 20:33:46;;;;;;;0.50;0.40;;;10.50;99.90;;;;;;5116653;28;20721;-75
2023/01/12 20:36:15;;;;;;;2.03;0.80;;;10.50;99.90;;;;;;5116412;28;20225;-76
2023/01/12 20:38:42;;;;;;;1.87;1.13;;;10.50;99.90;;;;;;5116641;28;20225;-76
2023/01/12 20:41:10;;;;;;;2.40;0.73;;;10.50;99.90;;;;;;5116471;28;20206;-75
2023/01/12 20:43:37;;;;;;;2.90;0.93;;;10.40;99.90;;;;;;5116372;28;20212;-73
2023/01/12 20:46:08;;;;;;;0.93;0.53;;;10.50;99.90;;;;;;5116221;28;20233;-73
2023/01/12 20:48:35;;;;;;;2.77;0.70;;;10.60;99.90;;;;;;5116320;28;20198;-74
2023/01/12 20:51:02;;;;;;;1.70;0.80;;;10.60;99.90;;;;;;5116113;27;20229;-73
2023/01/12 20:53:30;;;;;;;1.80;0.90;;;10.60;99.90;;;;;;5115876;28;20678;-78
2023/01/12 20:55:57;;;;;;;4.73;1.83;;;10.60;99.90;;;;;;5116653;28;20253;-76
2023/01/12 20:58:24;;;;;;;3.03;0.87;;;10.60;99.90;;;;;;5115711;27;20205;-75
2023/01/12 21:00:51;;;;;;;1.13;0.63;;;10.60;99.90;;;;;;5115728;28;20652;-76
2023/01/12 21:03:19;;;;;;;1.23;0.60;;;10.60;99.90;;;;;;5116138;27;20198;-73
2023/01/12 21:05:47;;;;;;;1.17;0.43;;;10.60;99.90;;;;;;5115851;28;20232;-75
2023/01/12 21:08:15;;;;;;;1.97;0.40;;;10.60;99.90;;;;;;5116115;28;20206;-77
2023/01/12 21:10:48;;;;;;;0.90;0.40;;;10.60;99.90;;;;;;5115929;28;20229;-74
2023/01/12 21:13:15;;;;;;;4.00;0.30;;;10.60;99.90;;;;;;5115785;28;20789;-74
2023/01/12 21:15:42;;;;;;;0.43;0.40;;;10.60;99.90;;;;;;5115202;28;20691;-74
2023/01/12 21:18:09;;;;;;;0.60;0.40;;;10.60;99.90;;;;;;5115493;28;20198;-73
2023/01/12 21:20:41;;;;;;;2.07;0.43;;;10.70;99.90;;;;;;5115683;28;20208;-76
2023/01/12 21:23:08;;;;;;;0.70;0.50;;;10.70;99.90;;;;;;5115823;28;20198;-76
2023/01/12 21:25:34;;;;;;;0.60;0.40;;;10.70;99.90;;;;;;5115588;28;20229;-76
2023/01/12 21:28:01;;;;;;;0.80;0.27;;;10.70;99.90;;;;;;5115498;28;20206;-76
2023/01/12 21:30:28;;;;;;;0.40;0.20;;;10.70;99.90;;;;;;5115303;28;20233;-73
2023/01/12 21:32:55;;;;;;;0.60;0.33;;;10.70;99.90;;;;;;5115543;28;20205;-73
2023/01/12 21:35:24;;;;;;;0.37;0.37;;;10.80;99.90;;;;;;5115216;28;20707;-76
2023/01/12 21:37:52;;;;;;;0.60;0.40;;;10.80;99.90;;;;;;5115427;28;20240;-76
2023/01/12 21:40:19;;;;;;;1.77;0.50;;;10.80;99.90;;;;;;5114954;28;20209;-75
2023/01/12 21:45:31;;;;;;;3.23;0.33;;;10.70;99.90;;;;;;5115021;28;20573;-76
2023/01/12 21:47:57;;;;;;;0.40;0.40;;;10.70;99.90;;;;;;5115164;28;20198;-73
2023/01/12 21:50:24;;;;;;;1.33;0.40;;;10.70;99.90;;;;;;5114981;28;20710;-77
2023/01/12 21:52:52;;;;;;;0.80;0.33;;;10.70;99.90;;;;;;5115077;28;20197;-76
2023/01/12 21:55:19;;;;;;;0.50;0.40;;;10.70;99.90;;;;;;5114762;28;20222;-77
2023/01/12 21:57:46;;;;;;;0.63;0.50;;;10.70;99.90;;;;;;5114881;28;20228;-77
2023/01/12 22:00:14;;;;;;;2.30;0.40;;;10.70;99.90;;;;;;5114744;28;20202;-72
2023/01/12 22:02:41;;;;;;;2.73;0.60;;;10.70;99.90;;;;;;5114834;28;20240;-73
2023/01/12 22:05:09;;;;;;;0.80;0.30;;;10.70;99.90;;;;;;5114794;28;20264;-76
2023/01/12 22:07:36;;;;;;;0.60;0.30;;;10.70;99.90;;;;;;5114800;28;20258;-73
2023/01/12 22:10:18;;;;;;;0.30;0.30;;;10.50;99.90;;;;;;5114975;28;20229;-77
2023/01/12 22:12:45;;;;;;;1.17;0.30;;;10.50;99.90;;;;;;5114941;27;20296;-76
2023/01/12 22:15:13;;;;;;;1.13;0.40;;;10.40;99.90;;;;;;5114535;28;20224;-77
2023/01/12 22:17:40;;;;;;;1.03;0.20;;;10.40;99.90;;;;;;5114768;28;20205;-73
2023/01/12 22:20:09;;;;;;;0.33;0.20;;;10.40;99.90;;;;;;5114395;28;20212;-77
2023/01/12 22:22:37;;;;;;;0.97;0.30;;;10.30;99.90;;;;;;5114730;28;20206;-75
2023/01/12 22:25:06;;;;;;;2.53;0.30;;;10.20;99.90;;;;;;5114492;27;20264;-75
2023/01/12 22:27:33;;;;;;;0.30;0.20;;;10.10;99.90;;;;;;5114801;28;20438;-75
2023/01/12 22:30:00;;;;;;;0.90;0.50;;;10.10;99.90;;;;;;5114183;27;20213;-75
2023/01/12 22:32:27;;;;;;;0.53;0.30;;;10.10;99.90;;;;;;5114186;28;20201;-76
2023/01/12 22:34:57;;;;;;;2.13;0.33;;;10.10;99.90;;;;;;5114678;27;20209;-76
2023/01/12 22:37:24;;;;;;;2.87;0.33;;;10.10;99.90;;;;;;5114114;28;20202;-72
2023/01/12 22:39:51;;;;;;;2.60;0.40;;;10.00;99.90;;;;;;5114374;28;20300;-72
2023/01/12 22:42:19;;;;;;;1.17;0.27;;;10.10;99.90;;;;;;5114310;28;20204;-72
2023/01/12 22:44:46;;;;;;;1.17;0.30;;;10.10;99.90;;;;;;5113743;27;20202;-76
2023/01/12 22:47:13;;;;;;;0.97;0.23;;;10.10;99.90;;;;;;5114087;28;20588;-77
2023/01/12 22:49:40;;;;;;;1.03;0.30;;;10.10;99.90;;;;;;5114296;28;20198;-73
2023/01/12 22:52:09;;;;;;;0.43;0.10;;;10.10;99.90;;;;;;5114025;28;20237;-76
2023/01/12 22:54:37;;;;;;;0.93;0.50;;;10.20;99.90;;;;;;5113663;28;20205;-76
